Time;durP1;ratioP1;P1;durP2;ratioP2;P2;SDS_P1;SDS_P2;PMS_P1;PMS_P2;Temp;Humidity;BMP_temperature;BMP_pressure;BME280_temperature;BME280_humidity;BME280_pressure;Samples;Min_cycle;Max_cycle;Signal;HPM_P1;HPM_P2
2022/08/30 00:03:10;;;;;;;11.30;6.50;;;;;;;12.93;93.84;97072.20;108201;1267;22540;-78
2022/08/30 00:05:45;;;;;;;10.00;7.60;;;;;;;12.92;93.46;97071.30;107955;1268;22658;-78
2022/08/30 00:08:17;;;;;;;10.70;8.70;;;;;;;12.94;93.44;97069.58;107897;1269;26405;-78
2022/08/30 00:10:49;;;;;;;9.70;7.50;;;;;;;12.95;93.38;97069.47;108100;1268;24218;-77
2022/08/30 00:13:22;;;;;;;8.30;6.50;;;;;;;12.88;93.11;97073.21;108078;1268;22546;-78
2022/08/30 00:15:54;;;;;;;9.60;7.00;;;;;;;12.76;93.24;97074.60;108082;1268;22685;-77
2022/08/30 00:18:26;;;;;;;9.70;6.70;;;;;;;12.68;93.63;97077.77;108013;1268;25467;-77
2022/08/30 00:20:57;;;;;;;13.10;7.40;;;;;;;12.70;94.45;97076.52;108009;1268;22701;-77
2022/08/30 00:23:29;;;;;;;11.20;7.30;;;;;;;12.80;94.65;97080.80;108067;1268;22824;-77
2022/08/30 00:26:01;;;;;;;10.40;6.70;;;;;;;12.83;94.39;97082.21;108025;1268;25372;-77
2022/08/30 00:28:32;;;;;;;11.10;8.50;;;;;;;12.78;94.23;97081.16;107946;1269;30052;-77
2022/08/30 00:31:04;;;;;;;12.10;8.60;;;;;;;12.77;94.43;97087.09;108076;1268;22533;-77
2022/08/30 00:33:36;;;;;;;10.80;7.40;;;;;;;12.78;94.67;97087.23;108091;1268;22549;-78
2022/08/30 00:36:08;;;;;;;12.00;7.20;;;;;;;12.82;94.84;97088.33;108086;1268;22636;-77
2022/08/30 00:38:42;;;;;;;12.90;9.90;;;;;;;12.87;94.86;97082.17;107949;1269;71193;-78
2022/08/30 00:41:14;;;;;;;11.40;8.90;;;;;;;13.00;95.78;97084.42;108101;1268;22545;-78
2022/08/30 00:43:45;;;;;;;14.20;8.70;;;;;;;13.11;95.67;97082.47;108073;1268;25365;-78
2022/08/30 00:46:16;;;;;;;10.20;8.60;;;;;;;13.14;95.40;97081.11;108132;1268;22554;-78
2022/08/30 00:48:51;;;;;;;11.50;9.30;;;;;;;13.14;95.01;97078.16;107949;1268;27860;-78
2022/08/30 00:51:25;;;;;;;10.40;7.80;;;;;;;13.19;94.76;97073.61;108042;1269;22519;-78
2022/08/30 00:53:58;;;;;;;10.80;7.30;;;;;;;13.16;94.35;97074.63;108072;1269;22597;-78
2022/08/30 00:56:30;;;;;;;7.90;6.50;;;;;;;13.12;93.92;97073.19;108032;1269;25368;-78
2022/08/30 00:59:04;;;;;;;8.60;5.80;;;;;;;12.98;93.43;97077.42;107956;1268;31676;-78
2022/08/30 01:01:37;;;;;;;8.90;5.70;;;;;;;12.81;93.34;97076.79;107092;1269;1375739;-78
2022/08/30 01:04:12;;;;;;;8.20;5.20;;;;;;;12.73;93.73;97073.05;108004;1269;22578;-78
2022/08/30 01:06:44;;;;;;;9.00;5.70;;;;;;;12.65;93.71;97071.40;107990;1269;22546;-78
2022/08/30 01:09:16;;;;;;;11.10;6.50;;;;;;;12.63;94.26;97071.90;107951;1269;23233;-78
2022/08/30 01:11:51;;;;;;;10.30;6.60;;;;;;;12.62;94.54;97070.58;108037;1269;22645;-77
2022/08/30 01:14:23;;;;;;;8.30;6.50;;;;;;;12.62;95.13;97065.63;108017;1269;22791;-77
2022/08/30 01:16:57;;;;;;;8.60;6.90;;;;;;;12.66;95.47;97062.50;108008;1269;26466;-77
2022/08/30 01:19:38;;;;;;;11.80;7.70;;;;;;;12.71;95.78;97067.58;107975;1269;35611;-77
2022/08/30 01:22:23;;;;;;;14.50;9.20;;;;;;;12.77;95.66;97067.77;108055;1269;22768;-78
2022/08/30 01:24:57;;;;;;;12.70;8.90;;;;;;;12.82;95.80;97072.16;108011;1269;22534;-78
2022/08/30 01:27:31;;;;;;;13.10;9.70;;;;;;;12.88;95.71;97072.15;108009;1269;26184;-78
2022/08/30 01:30:04;;;;;;;10.30;7.80;;;;;;;12.92;95.58;97067.90;107981;1269;22614;-78
2022/08/30 01:32:41;;;;;;;9.40;7.00;;;;;;;12.94;95.27;97063.77;107874;1271;22570;-78
2022/08/30 01:35:19;;;;;;;9.80;7.00;;;;;;;12.95;95.33;97064.52;107891;1271;22611;-78
2022/08/30 01:37:51;;;;;;;11.30;7.40;;;;;;;12.94;95.10;97062.07;107935;1269;24751;-77
2022/08/30 01:40:23;;;;;;;12.00;8.30;;;;;;;12.94;94.94;97063.02;108032;1269;22535;-77
2022/08/30 01:42:54;;;;;;;11.40;8.20;;;;;;;12.96;94.85;97068.35;108007;1269;22661;-77
2022/08/30 01:45:25;;;;;;;11.90;8.00;;;;;;;12.96;94.79;97067.65;107997;1269;23030;-77
2022/08/30 01:47:56;;;;;;;9.30;7.10;;;;;;;12.88;94.29;97064.59;107903;1269;28706;-77
2022/08/30 01:50:28;;;;;;;9.80;6.50;;;;;;;12.68;94.01;97061.91;107886;1269;22522;-77
2022/08/30 01:53:01;;;;;;;11.80;5.80;;;;;;;12.51;94.18;97060.52;107936;1269;22546;-77
2022/08/30 01:55:32;;;;;;;9.90;4.80;;;;;;;12.42;94.57;97062.77;107891;1270;22525;-78
2022/08/30 01:58:03;;;;;;;9.40;6.60;;;;;;;12.49;95.21;97061.00;107909;1268;36752;-78
2022/08/30 02:00:35;;;;;;;8.50;6.90;;;;;;;12.62;95.95;97061.23;108026;1268;22789;-77
2022/08/30 02:03:07;;;;;;;9.50;6.70;;;;;;;12.70;95.40;97063.70;108062;1268;22524;-77
2022/08/30 02:05:38;;;;;;;9.00;6.70;;;;;;;12.72;95.10;97065.23;108050;1268;25296;-77
2022/08/30 02:08:09;;;;;;;11.10;6.70;;;;;;;12.73;94.83;97058.14;107971;1268;31932;-77
2022/08/30 02:10:43;;;;;;;9.00;6.10;;;;;;;12.70;94.51;97058.44;108034;1270;23518;-77
2022/08/30 02:13:14;;;;;;;10.80;6.20;;;;;;;12.68;94.40;97055.58;108085;1268;22538;-77
2022/08/30 02:15:45;;;;;;;8.20;5.90;;;;;;;12.62;94.29;97055.04;108023;1268;22540;-77
2022/08/30 02:18:17;;;;;;;8.90;5.30;;;;;;;12.56;94.11;97057.23;107998;1268;25848;-77
2022/08/30 02:20:48;;;;;;;9.40;5.60;;;;;;;12.52;94.21;97056.56;108040;1268;22536;-77
2022/08/30 02:23:22;;;;;;;9.30;5.80;;;;;;;12.54;94.61;97053.69;108069;1267;22549;-77
2022/08/30 02:25:53;;;;;;;10.50;7.20;;;;;;;12.59;94.64;97054.91;108026;1268;25452;-77
2022/08/30 02:28:25;;;;;;;10.80;7.40;;;;;;;12.61;94.69;97057.60;107959;1268;30052;-77
2022/08/30 02:30:57;;;;;;;9.20;7.20;;;;;;;12.61;94.70;97058.79;108053;1268;25669;-77
2022/08/30 02:33:28;;;;;;;9.50;6.40;;;;;;;12.60;94.59;97054.42;107962;1268;22534;-77
2022/08/30 02:35:59;;;;;;;10.10;6.20;;;;;;;12.60;94.58;97057.67;107946;1268;22512;-77
2022/08/30 02:38:31;;;;;;;8.30;6.30;;;;;;;12.55;94.00;97051.66;107904;1268;24912;-77
2022/08/30 02:41:02;;;;;;;9.80;6.70;;;;;;;12.51;93.88;97048.97;107958;1268;22536;-77
2022/08/30 02:43:33;;;;;;;9.90;7.20;;;;;;;12.55;94.06;97049.59;107916;1269;22525;-77
2022/08/30 02:46:04;;;;;;;8.80;7.10;;;;;;;12.51;94.37;97047.20;107854;1269;22609;-77
2022/08/30 02:48:35;;;;;;;9.20;7.10;;;;;;;12.43;94.51;97047.50;107784;1269;26236;-77
2022/08/30 02:51:10;;;;;;;13.00;7.00;;;;;;;12.36;94.72;97045.63;107935;1269;24198;-77
2022/08/30 02:53:43;;;;;;;11.00;7.10;;;;;;;12.35;94.76;97043.41;107854;1269;23288;-77
2022/08/30 02:56:15;;;;;;;10.80;6.80;;;;;;;12.35;94.87;97039.10;107962;1268;22803;-77
2022/08/30 02:58:47;;;;;;;8.70;7.40;;;;;;;12.35;94.86;97041.39;107910;1268;25961;-77
2022/08/30 03:01:18;;;;;;;9.30;7.30;;;;;;;12.37;95.02;97039.45;107935;1268;22516;-77
2022/08/30 03:03:50;;;;;;;10.70;6.70;;;;;;;12.37;95.06;97038.49;107900;1269;24442;-77
2022/08/30 03:06:21;;;;;;;7.50;5.50;;;;;;;12.36;95.01;97035.95;107911;1269;24153;-77
2022/08/30 03:08:52;;;;;;;7.50;5.20;;;;;;;12.35;94.83;97036.71;107709;1270;26345;-77
2022/08/30 03:11:24;;;;;;;9.20;6.50;;;;;;;12.37;94.83;97038.98;107916;1268;22609;-77
2022/08/30 03:13:55;;;;;;;8.60;6.50;;;;;;;12.41;94.84;97042.37;107946;1270;22534;-77
2022/08/30 03:16:26;;;;;;;8.90;7.30;;;;;;;12.39;95.07;97050.73;107989;1268;22650;-77
2022/08/30 03:18:57;;;;;;;10.70;7.60;;;;;;;12.35;95.42;97052.83;107979;1268;25075;-77
2022/08/30 03:21:28;;;;;;;9.00;7.30;;;;;;;12.32;95.45;97053.77;108053;1269;22687;-77
2022/08/30 03:23:59;;;;;;;9.80;7.00;;;;;;;12.35;95.53;97056.92;108076;1268;22691;-77
2022/08/30 03:26:31;;;;;;;8.40;6.80;;;;;;;12.36;95.39;97056.91;108028;1269;22526;-77
2022/08/30 03:29:02;;;;;;;9.60;7.10;;;;;;;12.35;95.48;97060.52;107912;1267;39470;-77
2022/08/30 03:31:33;;;;;;;8.50;7.20;;;;;;;12.33;95.62;97061.56;107988;1268;25463;-77
2022/08/30 03:34:05;;;;;;;10.60;7.00;;;;;;;12.35;95.84;97058.98;108045;1268;24033;-77
2022/08/30 03:36:36;;;;;;;9.30;7.30;;;;;;;12.36;95.49;97057.49;108060;1268;22531;-77
2022/08/30 03:39:09;;;;;;;8.40;6.70;;;;;;;12.31;95.16;97056.69;107995;1268;26894;-77
2022/08/30 03:41:40;;;;;;;11.10;7.40;;;;;;;12.31;95.36;97057.70;108050;1268;22538;-77
2022/08/30 03:44:11;;;;;;;8.40;6.70;;;;;;;12.35;95.39;97062.70;108041;1268;23333;-77
2022/08/30 03:46:42;;;;;;;7.30;6.20;;;;;;;12.37;95.34;97063.13;108004;1268;25687;-77
2022/08/30 03:49:13;;;;;;;8.30;6.20;;;;;;;12.33;95.10;97067.15;107970;1268;38629;-77
2022/08/30 03:51:44;;;;;;;8.50;6.00;;;;;;;12.30;94.95;97072.12;108034;1268;22793;-77
2022/08/30 03:54:16;;;;;;;8.60;5.90;;;;;;;12.28;94.96;97070.23;108054;1268;25375;-77
2022/08/30 03:56:47;;;;;;;9.00;6.10;;;;;;;12.26;94.93;97068.65;108036;1268;25414;-77
2022/08/30 03:59:18;;;;;;;8.30;5.90;;;;;;;12.28;95.00;97067.78;107992;1268;26556;-77
2022/08/30 04:01:50;;;;;;;8.00;5.80;;;;;;;12.24;94.85;97067.91;107992;1268;22532;-77
2022/08/30 04:04:21;;;;;;;10.10;5.70;;;;;;;12.17;94.89;97071.20;108056;1270;22539;-77
2022/08/30 04:06:53;;;;;;;8.60;5.90;;;;;;;12.13;95.09;97069.75;107908;1269;25396;-77
2022/08/30 04:09:24;;;;;;;8.30;5.90;;;;;;;12.14;95.26;97072.40;107854;1268;27712;-77
2022/08/30 04:11:56;;;;;;;9.50;6.00;;;;;;;12.18;95.30;97076.92;107939;1268;22537;-77
2022/08/30 04:14:27;;;;;;;9.60;5.80;;;;;;;12.23;95.19;97077.91;107953;1268;22521;-77
2022/08/30 04:16:58;;;;;;;8.00;5.50;;;;;;;12.36;95.34;97082.17;107915;1269;22555;-77
2022/08/30 04:19:29;;;;;;;9.80;6.30;;;;;;;12.66;95.64;97084.38;107940;1269;22527;-77
2022/08/30 04:22:01;;;;;;;7.60;5.80;;;;;;;13.24;96.33;97092.40;107998;1268;22544;-77
2022/08/30 04:24:33;;;;;;;6.40;5.30;;;;;;;13.86;95.77;97089.16;108059;1270;22553;-77
2022/08/30 04:27:04;;;;;;;6.20;5.20;;;;;;;14.52;94.42;97088.58;107985;1270;28002;-77
2022/08/30 04:29:36;;;;;;;9.00;5.60;;;;;;;15.24;93.62;97088.13;108055;1268;24237;-75
2022/08/30 04:32:08;;;;;;;7.30;4.90;;;;;;;16.02;92.30;97084.05;108037;1270;22686;-75
2022/08/30 04:34:39;;;;;;;7.60;5.30;;;;;;;16.80;90.51;97086.27;108045;1269;24184;-77
2022/08/30 04:37:10;;;;;;;7.70;5.00;;;;;;;17.65;88.98;97085.60;107924;1268;48381;-77
2022/08/30 04:39:42;;;;;;;6.90;5.30;;;;;;;18.46;86.26;97086.31;108007;1268;22580;-77
2022/08/30 04:42:14;;;;;;;8.40;5.80;;;;;;;18.83;82.66;97084.08;108029;1268;25413;-78
2022/08/30 04:44:46;;;;;;;7.40;5.30;;;;;;;19.37;82.12;97083.46;108061;1270;24264;-78
2022/08/30 04:47:17;;;;;;;6.30;5.30;;;;;;;19.93;79.88;97085.05;107811;1270;36897;-78
2022/08/30 04:49:48;;;;;;;6.60;5.50;;;;;;;20.39;78.24;97085.92;107918;1270;23238;-78
2022/08/30 04:52:19;;;;;;;8.70;5.30;;;;;;;20.92;76.89;97093.14;107938;1270;22639;-78
2022/08/30 04:54:56;;;;;;;6.50;5.00;;;;;;;21.40;75.20;97093.80;107937;1268;22554;-78
2022/08/30 04:57:28;;;;;;;6.80;4.70;;;;;;;22.09;74.07;97093.03;107945;1269;32910;-79
2022/08/30 05:00:00;;;;;;;6.30;4.20;;;;;;;22.83;72.79;97091.60;108029;1268;25313;-79
2022/08/30 05:02:31;;;;;;;6.90;4.50;;;;;;;23.48;71.02;97100.63;108002;1268;22546;-78
2022/08/30 05:07:56;;;;;;;8.30;3.90;;;;;;;25.21;67.08;97099.64;107964;1268;32347;-77
2022/08/30 05:10:28;;;;;;;5.90;4.00;;;;;;;25.80;64.83;97097.66;108028;1269;22531;-77
2022/08/30 05:12:59;;;;;;;6.80;4.20;;;;;;;26.36;63.33;97097.31;108055;1268;22541;-77
2022/08/30 05:15:30;;;;;;;5.10;3.60;;;;;;;26.94;61.37;97092.09;108049;1268;24282;-77
2022/08/30 05:18:02;;;;;;;5.20;3.70;;;;;;;27.37;58.48;97095.78;107987;1268;24319;-77
2022/08/30 05:20:34;;;;;;;5.30;3.70;;;;;;;27.40;57.50;97096.13;108065;1270;22532;-76
2022/08/30 05:23:06;;;;;;;5.20;4.00;;;;;;;27.58;55.64;97096.44;108011;1271;22546;-77
2022/08/30 05:25:43;;;;;;;6.90;3.80;;;;;;;27.95;54.67;97101.39;108067;1268;22536;-77
2022/08/30 05:28:19;;;;;;;5.50;3.70;;;;;;;28.40;53.46;97103.61;107945;1270;67591;-77
2022/08/30 05:30:51;;;;;;;7.10;4.60;;;;;;;28.76;52.36;97102.59;108059;1268;22554;-77
2022/08/30 05:33:22;;;;;;;6.20;3.80;;;;;;;29.15;51.13;97097.16;108114;1268;22525;-76
2022/08/30 05:35:56;;;;;;;4.50;3.80;;;;;;;29.60;50.44;97099.02;108066;1270;25247;-77
2022/08/30 05:38:29;;;;;;;5.30;3.60;;;;;;;30.03;49.48;97099.38;107783;1268;189135;-77
2022/08/30 05:41:01;;;;;;;5.40;3.60;;;;;;;30.61;48.72;97102.19;108091;1270;22617;-77
2022/08/30 05:43:33;;;;;;;7.00;3.40;;;;;;;31.20;47.14;97102.29;108080;1268;22611;-77
2022/08/30 05:46:06;;;;;;;9.60;4.50;;;;;;;31.25;45.38;97104.93;108064;1268;22566;-77
2022/08/30 05:48:39;;;;;;;5.70;3.20;;;;;;;31.08;44.67;97105.71;108017;1268;28852;-77
2022/08/30 05:51:17;;;;;;;6.20;2.90;;;;;;;31.07;44.66;97107.20;108069;1270;25417;-77
2022/08/30 05:53:52;;;;;;;4.40;3.00;;;;;;;31.30;43.67;97107.95;108101;1269;22528;-77
2022/08/30 05:56:26;;;;;;;6.80;3.40;;;;;;;31.48;42.74;97108.52;108061;1270;22553;-78
2022/08/30 05:58:58;;;;;;;5.60;3.60;;;;;;;31.48;42.83;97109.62;107999;1270;25452;-76
2022/08/30 06:01:31;;;;;;;6.10;3.40;;;;;;;31.96;42.23;97110.55;108045;1270;25065;-77
2022/08/30 06:04:05;;;;;;;7.40;3.00;;;;;;;32.62;41.39;97111.83;108103;1269;22541;-77
2022/08/30 06:06:38;;;;;;;4.50;3.00;;;;;;;33.15;40.55;97113.43;108116;1269;22538;-76
2022/08/30 06:09:11;;;;;;;5.30;3.00;;;;;;;33.43;39.60;97117.52;108019;1268;26041;-77
2022/08/30 06:11:43;;;;;;;5.40;3.10;;;;;;;33.29;39.03;97118.48;108114;1269;25255;-77
2022/08/30 06:14:15;;;;;;;6.70;3.50;;;;;;;33.52;38.68;97115.63;108093;1268;25291;-77
2022/08/30 06:16:47;;;;;;;5.50;3.50;;;;;;;33.94;38.08;97124.95;107990;1268;22547;-77
2022/08/30 06:19:22;;;;;;;5.80;3.40;;;;;;;34.15;37.89;97120.48;107975;1268;23751;-76
2022/08/30 06:21:53;;;;;;;5.70;3.70;;;;;;;34.70;36.77;97120.52;107999;1270;23897;-77
2022/08/30 06:24:27;;;;;;;5.00;3.10;;;;;;;34.46;36.15;97122.41;108232;1268;24275;-79
2022/08/30 06:26:59;;;;;;;5.60;3.40;;;;;;;34.80;35.91;97122.85;108215;1270;22565;-79
2022/08/30 06:29:33;;;;;;;6.10;3.20;;;;;;;35.21;35.64;97121.73;108194;1269;22751;-79
2022/08/30 06:32:05;;;;;;;5.50;3.20;;;;;;;35.27;35.41;97123.73;108152;1270;24230;-77
2022/08/30 06:34:37;;;;;;;5.40;3.40;;;;;;;35.11;34.41;97123.87;108198;1268;24423;-78
2022/08/30 06:37:09;;;;;;;5.20;3.50;;;;;;;34.98;34.35;97125.64;108062;1270;59017;-78
2022/08/30 06:39:41;;;;;;;7.00;3.40;;;;;;;35.18;34.09;97123.94;108175;1269;22525;-79
2022/08/30 06:42:13;;;;;;;5.20;3.30;;;;;;;35.19;34.23;97124.06;108120;1270;26416;-78
2022/08/30 06:44:47;;;;;;;5.10;3.10;;;;;;;35.64;34.06;97129.02;108144;1268;22707;-78
2022/08/30 06:47:21;;;;;;;6.70;3.40;;;;;;;35.94;33.42;97122.31;108005;1268;75607;-77
2022/08/30 06:49:54;;;;;;;5.30;2.90;;;;;;;35.80;32.59;97129.59;108116;1270;22537;-81
2022/08/30 06:52:26;;;;;;;5.90;3.60;;;;;;;35.41;32.37;97130.14;108101;1268;22542;-78
2022/08/30 06:54:58;;;;;;;6.20;3.70;;;;;;;35.59;32.68;97130.02;108163;1268;24280;-76
2022/08/30 06:57:30;;;;;;;5.30;3.10;;;;;;;35.58;32.26;97132.34;108014;1268;67457;-76
2022/08/30 07:00:04;;;;;;;4.50;3.40;;;;;;;35.87;32.13;97127.98;108146;1269;22598;-76
2022/08/30 07:02:40;;;;;;;4.70;3.10;;;;;;;36.07;32.04;97125.52;108186;1270;23638;-78
2022/08/30 07:05:16;;;;;;;4.40;3.00;;;;;;;36.47;31.63;97123.05;108139;1268;22579;-78
2022/08/30 07:07:48;;;;;;;4.20;3.10;;;;;;;36.61;30.30;97124.88;107947;1270;80802;-80
2022/08/30 07:10:23;;;;;;;5.60;3.00;;;;;;;35.46;30.13;97123.05;108139;1271;25273;-80
2022/08/30 07:12:58;;;;;;;4.10;2.60;;;;;;;35.08;30.78;97124.32;108178;1270;22670;-80
2022/08/30 07:15:30;;;;;;;4.40;2.50;;;;;;;35.48;31.07;97121.61;108148;1270;22742;-78
2022/08/30 07:20:54;;;;;;;4.60;2.80;;;;;;;35.84;30.70;97123.04;108158;1268;24127;-79
2022/08/30 07:23:26;;;;;;;4.60;2.50;;;;;;;36.40;30.36;97122.93;108158;1268;22574;-79
2022/08/30 07:25:58;;;;;;;5.20;3.20;;;;;;;36.80;30.05;97121.80;108082;1268;22806;-79
2022/08/30 07:28:30;;;;;;;6.00;3.00;;;;;;;36.64;29.29;97125.02;107999;1268;86054;-79
2022/08/30 07:31:02;;;;;;;6.30;2.60;;;;;;;37.04;28.90;97126.63;108156;1269;22560;-79
2022/08/30 07:33:37;;;;;;;4.20;2.70;;;;;;;35.78;28.92;97119.05;108152;1271;22748;-79
2022/08/30 07:36:16;;;;;;;4.50;3.30;;;;;;;35.63;29.75;97118.58;108078;1268;25114;-76
2022/08/30 07:38:50;;;;;;;4.60;3.30;;;;;;;35.24;29.61;97115.75;107899;1270;164719;-80
2022/08/30 07:41:27;;;;;;;5.40;3.30;;;;;;;33.15;30.19;97121.41;108059;1268;25355;-79
2022/08/30 07:43:59;;;;;;;5.20;2.80;;;;;;;30.21;32.16;97120.45;108198;1268;22720;-79
2022/08/30 07:46:34;;;;;;;5.10;2.40;;;;;;;28.54;34.13;97129.77;108009;1271;22550;-80
2022/08/30 07:49:08;;;;;;;4.50;2.50;;;;;;;27.25;35.02;97125.23;107882;1271;43235;-80
2022/08/30 07:51:40;;;;;;;5.10;2.70;;;;;;;26.09;36.76;97130.56;108043;1270;25404;-78
2022/08/30 07:54:12;;;;;;;4.90;2.80;;;;;;;26.05;38.53;97128.32;108023;1270;22804;-79
2022/08/30 07:56:47;;;;;;;5.80;3.10;;;;;;;27.02;39.23;97123.88;108069;1268;23847;-79
2022/08/30 07:59:19;;;;;;;4.70;2.80;;;;;;;28.56;38.34;97128.56;107837;1268;26402;-81
2022/08/30 08:01:50;;;;;;;4.50;2.70;;;;;;;28.75;38.11;97131.97;107931;1268;22641;-77
2022/08/30 08:04:22;;;;;;;5.60;3.10;;;;;;;29.36;36.72;97130.20;107926;1268;24282;-77
2022/08/30 08:06:53;;;;;;;6.10;2.80;;;;;;;30.97;37.41;97125.48;107897;1268;22553;-77
2022/08/30 08:09:25;;;;;;;4.20;2.50;;;;;;;33.78;35.42;97131.41;107871;1268;24953;-77
2022/08/30 08:11:56;;;;;;;4.80;2.40;;;;;;;35.83;31.95;97133.90;107888;1268;22525;-78
2022/08/30 08:14:28;;;;;;;4.80;2.30;;;;;;;36.34;28.69;97130.89;107880;1269;22517;-77
2022/08/30 08:16:59;;;;;;;3.40;2.30;;;;;;;35.64;26.37;97130.24;107879;1268;23225;-77
2022/08/30 08:19:30;;;;;;;8.10;4.50;;;;;;;33.58;29.26;97137.12;107858;1268;22546;-77
2022/08/30 08:22:02;;;;;;;5.50;3.00;;;;;;;34.02;30.28;97131.71;107944;1271;22524;-77
2022/08/30 08:24:33;;;;;;;6.10;3.20;;;;;;;32.94;30.43;97135.23;107968;1268;22563;-77
2022/08/30 08:27:05;;;;;;;5.40;3.20;;;;;;;31.07;31.76;97133.77;107791;1268;38067;-78
2022/08/30 08:29:36;;;;;;;4.90;2.80;;;;;;;28.97;33.64;97135.84;107830;1271;22608;-77
2022/08/30 08:32:08;;;;;;;5.80;3.50;;;;;;;26.97;35.54;97136.48;107825;1270;23065;-80
2022/08/30 08:34:40;;;;;;;4.90;2.90;;;;;;;25.82;37.31;97136.27;107951;1271;24269;-79
2022/08/30 08:37:11;;;;;;;4.20;2.80;;;;;;;25.04;38.74;97137.09;107865;1269;42429;-79
2022/08/30 08:39:42;;;;;;;4.30;2.90;;;;;;;24.72;39.66;97142.11;108011;1268;22539;-79
2022/08/30 08:42:25;;;;;;;6.50;2.80;;;;;;;24.22;40.37;97144.37;108022;1271;22606;-78
2022/08/30 08:45:03;;;;;;;5.30;3.20;;;;;;;23.62;41.69;97147.04;107997;1271;23443;-79
2022/08/30 08:47:40;;;;;;;10.60;5.10;;;;;;;22.94;43.26;97147.61;107942;1271;24559;-79
2022/08/30 08:50:16;;;;;;;6.70;4.50;;;;;;;22.65;44.52;97147.93;108004;1268;22676;-79
2022/08/30 08:55:53;;;;;;;4.60;2.90;;;;;;;24.33;46.15;97149.84;107705;1268;22567;-79
2022/08/30 08:58:30;;;;;;;8.30;3.60;;;;;;;26.12;42.88;97141.23;108153;1268;32375;-78
2022/08/30 09:01:03;;;;;;;4.70;2.60;;;;;;;25.57;42.43;97141.98;107911;1268;23007;-80
2022/08/30 09:03:36;;;;;;;2.80;2.50;;;;;;;25.24;42.53;97142.20;107942;1268;22543;-80
2022/08/30 09:06:20;;;;;;;4.10;2.80;;;;;;;25.27;42.81;97137.20;107867;1268;25485;-80
2022/08/30 09:08:52;;;;;;;5.60;2.80;;;;;;;25.60;43.18;97142.42;107887;1269;24542;-81
2022/08/30 09:11:28;;;;;;;4.60;2.50;;;;;;;26.83;43.82;97139.73;107982;1268;22521;-81
2022/08/30 09:14:00;;;;;;;3.50;2.10;;;;;;;28.93;41.59;97137.19;107952;1268;22528;-80
2022/08/30 09:16:50;;;;;;;3.00;1.90;;;;;;;29.31;39.00;97137.15;107957;1268;25484;-80
2022/08/30 09:19:34;;;;;;;3.60;2.40;;;;;;;29.35;38.46;97137.69;107945;1268;32186;-80
2022/08/30 09:22:14;;;;;;;5.40;2.60;;;;;;;28.85;38.95;97137.02;108037;1268;22558;-80
2022/08/30 09:24:45;;;;;;;;;;;;;;;28.19;39.35;97139.09;108051;1268;23210;-81
2022/08/30 09:27:21;;;;;;;3.30;2.10;;;;;;;27.34;38.64;97134.64;107927;1270;69644;-81
2022/08/30 09:29:56;;;;;;;2.90;1.90;;;;;;;26.16;39.20;97137.09;108026;1268;22541;-80
2022/08/30 09:32:37;;;;;;;2.70;1.50;;;;;;;25.48;40.16;97136.18;108075;1268;22652;-81
2022/08/30 09:35:18;;;;;;;4.00;2.20;;;;;;;25.26;40.85;97134.63;108099;1270;22554;-80
2022/08/30 09:37:52;;;;;;;;;;;;;;;25.02;41.92;97132.72;108227;1268;47238;-81
2022/08/30 09:40:32;;;;;;;4.50;2.20;;;;;;;24.97;42.32;97131.06;108341;1268;25047;-80
2022/08/30 09:43:07;;;;;;;2.80;2.00;;;;;;;25.06;43.23;97131.09;108366;1268;22552;-81
2022/08/30 09:45:43;;;;;;;3.20;2.20;;;;;;;25.11;42.82;97129.26;107992;1268;25482;-80
2022/08/30 09:48:31;;;;;;;3.70;2.20;;;;;;;25.10;42.45;97126.30;107959;1268;43133;-80
2022/08/30 09:51:38;;;;;;;2.90;2.40;;;;;;;24.63;41.72;97130.06;108110;1268;22544;-80
2022/08/30 09:54:19;;;;;;;4.20;2.50;;;;;;;24.42;43.30;97132.27;108302;1268;22538;-80
2022/08/30 09:57:04;;;;;;;2.80;2.20;;;;;;;24.83;43.88;97124.45;108071;1268;22587;-79
2022/08/30 09:59:46;;;;;;;4.80;2.40;;;;;;;24.97;43.75;97125.63;108055;1270;22663;-80
2022/08/30 10:02:36;;;;;;;2.90;2.30;;;;;;;25.05;43.65;97123.15;108134;1268;22551;-80
2022/08/30 10:05:19;;;;;;;5.10;2.20;;;;;;;24.56;44.18;97128.54;108311;1270;24307;-80
2022/08/30 10:08:00;;;;;;;3.20;1.80;;;;;;;24.35;43.84;97127.17;108303;1268;40410;-80
2022/08/30 10:10:37;;;;;;;2.60;1.60;;;;;;;24.10;44.02;97126.30;108318;1270;22544;-80
2022/08/30 10:13:36;;;;;;;2.20;1.30;;;;;;;23.83;43.49;97123.21;108277;1268;26435;-79
2022/08/30 10:16:20;;;;;;;3.20;2.10;;;;;;;23.05;44.79;97120.25;107927;1268;22602;-79
2022/08/30 10:18:57;;;;;;;2.40;1.70;;;;;;;23.06;45.69;97114.09;107846;1268;31876;-80
2022/08/30 10:21:35;;;;;;;4.50;2.20;;;;;;;23.18;45.58;97114.25;108241;1268;22552;-80
2022/08/30 10:24:12;;;;;;;2.80;1.70;;;;;;;23.50;45.98;97119.16;108215;1268;22488;-79
2022/08/30 10:26:50;;;;;;;5.00;2.60;;;;;;;23.67;45.24;97111.15;108270;1268;22608;-80
2022/08/30 10:29:28;;;;;;;6.20;3.30;;;;;;;23.42;47.42;97111.61;108225;1268;37020;-80
2022/08/30 10:32:03;;;;;;;2.70;2.00;;;;;;;23.43;46.82;97115.12;108279;1270;22523;-79
2022/08/30 10:34:39;;;;;;;2.60;1.40;;;;;;;23.33;46.24;97117.48;108305;1268;22550;-79
2022/08/30 10:37:14;;;;;;;1.80;1.30;;;;;;;23.24;46.58;97120.44;107874;1268;26992;-79
2022/08/30 10:39:50;;;;;;;2.50;1.40;;;;;;;23.36;46.93;97117.73;107832;1270;22546;-79
2022/08/30 10:42:25;;;;;;;2.90;1.40;;;;;;;23.43;46.99;97113.80;107918;1268;24385;-75
2022/08/30 10:45:03;;;;;;;2.10;1.50;;;;;;;23.81;47.87;97111.46;107968;1268;22524;-71
2022/08/30 10:47:40;;;;;;;4.20;1.50;;;;;;;24.34;48.02;97107.30;107852;1268;33214;-70
2022/08/30 10:50:17;;;;;;;3.10;1.80;;;;;;;24.66;47.02;97102.42;107902;1268;24157;-74
2022/08/30 10:52:58;;;;;;;2.70;1.60;;;;;;;24.49;44.53;97095.10;108023;1268;22551;-73
2022/08/30 10:55:34;;;;;;;2.60;2.00;;;;;;;24.08;45.30;97091.20;107940;1268;25344;-73
2022/08/30 10:58:09;;;;;;;3.20;2.10;;;;;;;23.83;46.52;97097.07;107819;1268;27971;-72
2022/08/30 11:00:50;;;;;;;3.20;2.30;;;;;;;24.05;47.46;97101.73;107928;1268;24229;-78
2022/08/30 11:04:19;;;;;;;4.40;2.40;;;;;;;23.69;46.04;97099.27;107963;1268;22561;-79
2022/08/30 11:06:58;;;;;;;4.60;1.90;;;;;;;23.09;47.18;97098.88;107903;1268;26660;-79
2022/08/30 11:09:45;;;;;;;3.50;2.00;;;;;;;22.88;47.22;97094.44;107905;1268;22611;-79
2022/08/30 11:12:36;;;;;;;3.00;1.70;;;;;;;22.64;46.58;97095.27;107931;1268;22522;-79
2022/08/30 11:15:16;;;;;;;;;;;;;;;22.53;48.07;97091.54;107969;1268;22662;-79
2022/08/30 11:17:54;;;;;;;;;;;;;;;23.00;49.25;97088.11;107971;1268;29191;-78
2022/08/30 11:20:34;;;;;;;2.60;1.70;;;;;;;23.39;48.36;97089.65;107981;1268;22549;-79
2022/08/30 11:23:34;;;;;;;3.30;1.80;;;;;;;23.64;47.45;97088.96;108096;1268;22559;-80
2022/08/30 11:26:08;;;;;;;3.20;2.20;;;;;;;23.70;48.04;97089.64;107906;1269;22677;-78
2022/08/30 11:29:05;;;;;;;4.20;2.60;;;;;;;23.83;47.87;97090.34;107908;1268;60038;-78
2022/08/30 11:31:41;;;;;;;5.00;2.50;;;;;;;24.04;47.47;97088.25;107932;1268;22764;-79
2022/08/30 11:34:13;;;;;;;2.60;2.10;;;;;;;24.23;47.35;97083.46;108029;1268;22531;-79
2022/08/30 11:37:06;;;;;;;3.70;2.10;;;;;;;24.31;46.78;97085.04;108013;1268;25350;-79
2022/08/30 11:39:58;;;;;;;4.40;2.00;;;;;;;24.22;47.37;97083.60;108031;1268;22546;-79
2022/08/30 11:42:36;;;;;;;2.80;2.10;;;;;;;24.27;48.30;97086.27;108325;1268;24019;-79
2022/08/30 11:45:41;;;;;;;3.60;2.10;;;;;;;24.20;47.67;97086.20;108335;1268;22649;-80
2022/08/30 11:48:44;;;;;;;2.90;2.10;;;;;;;23.96;47.15;97082.98;108236;1268;32710;-80
2022/08/30 11:51:50;;;;;;;3.90;1.80;;;;;;;24.12;47.73;97080.61;108339;1268;22588;-80
2022/08/30 11:54:34;;;;;;;4.60;2.10;;;;;;;24.38;47.35;97075.52;108311;1268;22520;-81
2022/08/30 11:57:20;;;;;;;2.40;1.60;;;;;;;24.57;47.40;97070.39;108171;1268;63022;-80
2022/08/30 12:00:02;;;;;;;2.70;2.00;;;;;;;24.50;46.64;97068.48;108340;1268;22588;-80
2022/08/30 12:02:51;;;;;;;3.40;1.80;;;;;;;24.50;46.62;97063.23;108046;1268;22637;-82
2022/08/30 12:05:50;;;;;;;3.10;2.20;;;;;;;24.70;46.80;97063.98;108036;1268;25365;-80
2022/08/30 12:08:52;;;;;;;3.00;1.90;;;;;;;25.00;46.78;97060.97;107961;1268;28814;-81
2022/08/30 12:12:03;;;;;;;3.50;1.80;;;;;;;25.12;47.01;97067.24;108017;1268;25319;-80